Time;durP1;ratioP1;P1;durP2;ratioP2;P2;SDS_P1;SDS_P2;PMS_P1;PMS_P2;Temp;Humidity;BMP_temperature;BMP_pressure;BME280_temperature;BME280_humidity;BME280_pressure;Samples;Min_cycle;Max_cycle;Signal;HPM_P1;HPM_P2
2023/09/17 00:00:38;;;;;;;7.80;5.70;;;14.40;99.90;;;;;;4976974;28;20030;-79
2023/09/17 00:03:04;;;;;;;5.60;5.03;;;14.40;99.90;;;;;;4973843;28;20579;-80
2023/09/17 00:05:34;;;;;;;6.40;4.90;;;14.40;99.90;;;;;;4976207;28;20126;-80
2023/09/17 00:08:00;;;;;;;8.40;5.63;;;14.40;99.90;;;;;;4975011;28;20357;-80
2023/09/17 00:10:26;;;;;;;6.30;5.03;;;14.50;99.90;;;;;;4973867;28;20034;-80
2023/09/17 00:12:53;;;;;;;5.25;4.75;;;14.40;99.90;;;;;;4956325;28;20407;-78
2023/09/17 00:15:20;;;;;;;4.75;4.28;;;14.40;99.90;;;;;;4972665;28;20035;-80
2023/09/17 00:17:46;;;;;;;5.20;4.70;;;14.40;99.90;;;;;;4958859;28;20035;-79
2023/09/17 00:20:12;;;;;;;5.63;4.90;;;14.50;99.90;;;;;;4972769;28;20054;-80
2023/09/17 00:22:39;;;;;;;6.43;5.03;;;14.50;99.90;;;;;;4973514;28;20035;-79
2023/09/17 00:25:05;;;;;;;5.20;4.70;;;14.50;99.90;;;;;;4972794;28;20027;-79
2023/09/17 00:27:32;;;;;;;5.60;5.00;;;14.60;99.90;;;;;;4977899;28;20056;-80
2023/09/17 00:29:58;;;;;;;5.60;4.70;;;14.60;99.90;;;;;;4973317;28;20399;-80
2023/09/17 00:32:23;;;;;;;4.75;4.20;;;14.60;99.90;;;;;;4974405;28;20031;-78
2023/09/17 00:34:49;;;;;;;5.53;4.47;;;14.60;99.90;;;;;;4970080;28;20039;-78
2023/09/17 00:37:16;;;;;;;5.80;4.85;;;14.70;99.90;;;;;;4944344;28;20101;-81
2023/09/17 00:39:42;;;;;;;5.20;4.47;;;14.70;99.90;;;;;;4955334;28;20513;-81
2023/09/17 00:42:08;;;;;;;4.68;4.28;;;14.70;99.90;;;;;;4958451;28;20219;-79
2023/09/17 00:44:33;;;;;;;6.25;5.00;;;14.80;99.90;;;;;;4973029;28;20102;-80
2023/09/17 00:47:02;;;;;;;5.03;4.53;;;14.80;99.90;;;;;;4973247;28;20114;-78
2023/09/17 00:49:29;;;;;;;4.88;4.40;;;14.80;99.90;;;;;;4955416;28;20030;-80
2023/09/17 00:51:56;;;;;;;5.15;4.60;;;14.90;99.90;;;;;;4975088;28;20093;-78
2023/09/17 00:54:25;;;;;;;7.63;5.30;;;14.90;99.90;;;;;;4972512;28;20066;-80
2023/09/17 00:56:51;;;;;;;5.95;5.00;;;14.90;99.90;;;;;;4977573;28;20106;-79
2023/09/17 00:59:18;;;;;;;6.13;5.53;;;15.00;99.90;;;;;;4966634;28;20042;-80
2023/09/17 01:01:45;;;;;;;6.85;5.10;;;15.00;99.90;;;;;;4973763;28;20031;-79
2023/09/17 01:04:12;;;;;;;6.65;5.50;;;15.00;99.90;;;;;;4971070;28;20096;-80
2023/09/17 01:06:40;;;;;;;7.03;5.53;;;15.00;99.90;;;;;;4972862;28;20023;-81
2023/09/17 01:09:09;;;;;;;6.57;5.90;;;15.00;99.90;;;;;;4971328;28;20039;-79
2023/09/17 01:11:36;;;;;;;6.40;5.80;;;14.90;99.90;;;;;;4959056;28;20130;-81
2023/09/17 01:14:12;;;;;;;8.20;5.07;;;14.90;99.90;;;;;;4972071;28;20025;-80
2023/09/17 01:16:42;;;;;;;5.72;5.05;;;14.90;99.90;;;;;;4968156;28;20035;-81
2023/09/17 01:19:17;;;;;;;5.47;4.40;;;15.00;99.90;;;;;;4961869;28;20436;-79
2023/09/17 01:22:09;;;;;;;6.50;5.13;;;15.00;99.90;;;;;;4952154;28;20388;-79
2023/09/17 01:24:59;;;;;;;6.28;5.43;;;14.90;99.90;;;;;;4967198;28;20031;-80
2023/09/17 01:27:26;;;;;;;7.05;5.55;;;14.90;99.90;;;;;;4971991;28;20069;-80
2023/09/17 01:29:53;;;;;;;5.47;4.30;;;14.90;99.90;;;;;;4972213;28;20045;-79
2023/09/17 01:32:19;;;;;;;5.20;4.70;;;14.90;99.90;;;;;;4958799;28;20108;-81
2023/09/17 01:34:49;;;;;;;7.07;5.03;;;14.80;99.90;;;;;;4970878;28;20038;-80
2023/09/17 01:37:35;;;;;;;5.28;4.78;;;14.80;99.90;;;;;;4955928;28;20104;-79
2023/09/17 01:40:11;;;;;;;5.35;4.80;;;14.70;99.90;;;;;;4970917;28;20512;-79
2023/09/17 01:42:40;;;;;;;5.50;5.00;;;14.70;99.90;;;;;;4969302;28;20093;-79
2023/09/17 01:45:09;;;;;;;6.93;5.10;;;14.70;99.90;;;;;;4955578;28;20046;-80
2023/09/17 01:47:36;;;;;;;8.40;5.40;;;14.70;99.90;;;;;;4977493;28;20156;-79
2023/09/17 01:50:04;;;;;;;5.63;5.07;;;14.60;99.90;;;;;;4972639;28;20066;-80
2023/09/17 01:52:34;;;;;;;7.10;5.28;;;14.60;99.90;;;;;;4975158;28;20483;-79
2023/09/17 01:55:03;;;;;;;6.13;5.53;;;14.60;99.90;;;;;;4955989;28;20117;-79
2023/09/17 01:57:31;;;;;;;5.40;4.75;;;14.60;99.90;;;;;;4956302;28;20034;-79
2023/09/17 01:59:57;;;;;;;5.90;5.35;;;14.50;99.90;;;;;;4960039;28;20030;-79
2023/09/17 02:02:23;;;;;;;6.85;5.63;;;14.50;99.90;;;;;;4974652;28;20031;-79
2023/09/17 02:04:49;;;;;;;6.90;5.82;;;14.40;99.90;;;;;;4954422;28;20067;-78
2023/09/17 02:07:15;;;;;;;5.10;4.60;;;14.40;99.90;;;;;;4975653;28;20041;-79
2023/09/17 02:09:41;;;;;;;6.30;5.00;;;14.40;99.90;;;;;;4969165;28;20031;-79
2023/09/17 02:12:07;;;;;;;5.35;4.65;;;14.40;99.90;;;;;;4972114;28;20033;-79
2023/09/17 02:14:33;;;;;;;7.35;5.60;;;14.40;99.90;;;;;;4970768;28;20031;-79
2023/09/17 02:16:59;;;;;;;7.15;5.32;;;14.40;99.90;;;;;;4953852;28;20038;-79
2023/09/17 02:19:25;;;;;;;5.80;5.25;;;14.30;99.90;;;;;;4970117;28;20039;-79
2023/09/17 02:21:54;;;;;;;5.70;4.88;;;14.30;99.90;;;;;;4974378;28;20063;-79
2023/09/17 02:24:20;;;;;;;7.57;5.22;;;14.40;99.90;;;;;;4971298;28;20481;-80
2023/09/17 02:26:47;;;;;;;5.63;5.13;;;14.40;99.90;;;;;;4973318;28;20034;-80
2023/09/17 02:29:13;;;;;;;5.90;4.80;;;14.40;99.90;;;;;;4971103;28;20682;-78
2023/09/17 02:31:39;;;;;;;4.63;4.22;;;14.40;99.90;;;;;;4974048;28;20371;-78
2023/09/17 02:34:05;;;;;;;5.55;4.60;;;14.40;99.90;;;;;;4968570;28;20026;-79
2023/09/17 02:36:31;;;;;;;4.85;4.43;;;14.40;99.90;;;;;;4976379;28;20122;-80
2023/09/17 02:38:57;;;;;;;4.45;4.05;;;14.40;99.90;;;;;;4953235;28;20047;-80
2023/09/17 02:41:23;;;;;;;4.90;4.00;;;14.40;99.90;;;;;;4975105;28;20038;-79
2023/09/17 02:43:49;;;;;;;5.72;5.22;;;14.40;99.90;;;;;;4954168;28;20038;-80
2023/09/17 02:46:14;;;;;;;5.57;4.70;;;14.40;99.90;;;;;;4971474;28;20732;-81
2023/09/17 02:48:40;;;;;;;5.05;4.55;;;14.40;99.90;;;;;;4973810;28;20026;-82
2023/09/17 02:51:06;;;;;;;6.65;5.10;;;14.40;99.90;;;;;;4959125;28;20042;-82
2023/09/17 02:53:32;;;;;;;5.38;4.53;;;14.40;99.90;;;;;;4978577;28;20030;-82
2023/09/17 02:55:58;;;;;;;7.55;5.40;;;14.40;99.90;;;;;;4966060;28;20539;-81
2023/09/17 02:58:24;;;;;;;8.80;5.43;;;14.40;99.90;;;;;;4973412;28;20046;-82
2023/09/17 03:00:50;;;;;;;5.22;4.57;;;14.40;99.90;;;;;;4961705;28;20522;-81
2023/09/17 03:03:16;;;;;;;6.15;5.30;;;14.40;99.90;;;;;;4954299;28;20023;-81
2023/09/17 03:05:48;;;;;;;6.30;5.03;;;14.40;99.90;;;;;;4972335;28;20023;-79
2023/09/17 03:08:14;;;;;;;6.90;4.63;;;14.50;99.90;;;;;;4954892;28;20046;-80
2023/09/17 03:10:44;;;;;;;6.45;4.55;;;14.50;99.90;;;;;;4954289;28;20034;-82
2023/09/17 03:13:14;;;;;;;5.05;4.55;;;14.50;99.90;;;;;;4973216;28;20031;-80
2023/09/17 03:15:42;;;;;;;5.65;4.40;;;14.50;99.90;;;;;;4962253;28;20113;-79
2023/09/17 03:18:10;;;;;;;7.15;5.05;;;14.50;99.90;;;;;;4971560;28;20106;-81
2023/09/17 03:20:37;;;;;;;6.22;4.35;;;14.60;99.90;;;;;;4959071;28;20114;-82
2023/09/17 03:23:04;;;;;;;5.28;4.78;;;14.60;99.90;;;;;;4973994;28;20031;-80
2023/09/17 03:25:31;;;;;;;7.45;4.65;;;14.60;99.90;;;;;;4955604;28;20027;-81
2023/09/17 03:28:00;;;;;;;5.82;5.18;;;14.60;99.90;;;;;;4957236;28;20027;-81
2023/09/17 03:30:27;;;;;;;5.38;4.57;;;14.60;99.90;;;;;;4960042;28;20030;-81
2023/09/17 03:32:54;;;;;;;4.72;4.32;;;14.50;99.90;;;;;;4975694;28;20538;-80
2023/09/17 03:35:21;;;;;;;5.93;5.03;;;14.50;99.90;;;;;;4943897;28;20477;-80
2023/09/17 03:37:47;;;;;;;7.53;5.00;;;14.50;99.90;;;;;;4944402;28;20035;-81
2023/09/17 03:40:14;;;;;;;5.70;5.07;;;14.50;99.90;;;;;;4974781;28;20037;-81
2023/09/17 03:42:43;;;;;;;5.07;4.50;;;14.50;99.90;;;;;;4959854;28;20027;-78
2023/09/17 03:45:11;;;;;;;5.72;4.90;;;14.50;99.90;;;;;;4973622;28;20030;-82
2023/09/17 03:47:43;;;;;;;6.43;4.93;;;14.60;99.90;;;;;;4955696;28;20031;-80
2023/09/17 03:50:13;;;;;;;6.45;4.88;;;14.60;99.90;;;;;;4961847;28;20491;-82
2023/09/17 03:52:42;;;;;;;6.60;5.47;;;14.60;99.90;;;;;;4970647;28;20042;-81
2023/09/17 03:55:09;;;;;;;5.30;4.75;;;14.60;99.90;;;;;;4957984;28;20042;-79
2023/09/17 03:57:36;;;;;;;6.38;4.90;;;14.60;99.90;;;;;;4958584;28;20050;-81
2023/09/17 04:00:07;;;;;;;5.72;5.03;;;14.60;99.90;;;;;;4956523;28;20511;-79
2023/09/17 04:02:38;;;;;;;6.13;4.90;;;14.60;99.90;;;;;;4977901;28;20027;-81
2023/09/17 04:05:09;;;;;;;5.90;5.28;;;14.60;99.90;;;;;;4957475;28;20561;-79
2023/09/17 04:07:34;;;;;;;5.80;5.15;;;14.60;99.90;;;;;;4956659;28;20027;-80
2023/09/17 04:10:02;;;;;;;5.53;4.90;;;14.60;99.90;;;;;;4956083;28;20039;-80
2023/09/17 04:12:28;;;;;;;5.63;4.95;;;14.60;99.90;;;;;;4957148;28;20031;-80
2023/09/17 04:14:55;;;;;;;5.32;4.72;;;14.60;99.90;;;;;;4975343;28;20459;-82
2023/09/17 04:17:21;;;;;;;5.72;5.13;;;14.60;99.90;;;;;;4957897;28;20073;-82
2023/09/17 04:19:47;;;;;;;7.13;6.00;;;14.60;99.90;;;;;;4975048;28;20055;-80
2023/09/17 04:22:13;;;;;;;6.45;5.82;;;14.60;99.90;;;;;;4974244;28;20027;-79
2023/09/17 04:24:38;;;;;;;6.43;5.47;;;14.60;99.90;;;;;;4956929;28;20026;-80
2023/09/17 04:27:05;;;;;;;5.57;4.95;;;14.70;99.90;;;;;;4944568;28;20026;-80
2023/09/17 04:29:31;;;;;;;8.13;5.63;;;14.70;99.90;;;;;;4974547;28;20042;-80
2023/09/17 04:32:15;;;;;;;5.45;4.95;;;14.80;99.90;;;;;;4976701;28;20118;-81
2023/09/17 04:34:41;;;;;;;5.50;5.00;;;14.80;99.90;;;;;;4961564;28;20051;-79
2023/09/17 04:37:07;;;;;;;5.60;5.03;;;14.80;99.90;;;;;;4957962;28;20031;-77
2023/09/17 04:39:33;;;;;;;6.38;5.75;;;14.80;99.90;;;;;;4956218;28;20081;-78
2023/09/17 04:41:59;;;;;;;7.15;5.13;;;14.90;99.90;;;;;;4943264;28;20039;-81
2023/09/17 04:44:43;;;;;;;5.97;5.25;;;14.90;99.90;;;;;;4970276;28;20069;-78
2023/09/17 04:47:09;;;;;;;7.47;5.57;;;14.90;99.90;;;;;;4977372;28;20507;-80
2023/09/17 04:49:37;;;;;;;8.13;5.82;;;14.90;99.90;;;;;;4958901;28;20443;-82
2023/09/17 04:52:03;;;;;;;5.93;5.30;;;15.00;99.90;;;;;;4963069;28;20085;-81
2023/09/17 04:54:29;;;;;;;6.82;5.60;;;15.00;99.90;;;;;;4939903;28;20047;-79
2023/09/17 04:56:55;;;;;;;8.50;6.03;;;15.00;99.90;;;;;;4961192;28;20092;-80
2023/09/17 04:59:22;;;;;;;7.47;5.45;;;15.00;99.90;;;;;;4955561;28;20035;-80
2023/09/17 05:01:48;;;;;;;6.15;5.32;;;15.00;99.90;;;;;;4959185;28;20039;-79
2023/09/17 05:04:15;;;;;;;6.10;5.22;;;15.00;99.90;;;;;;4972771;28;20050;-79
2023/09/17 05:06:42;;;;;;;5.47;4.93;;;15.00;99.90;;;;;;4963258;28;20450;-82
2023/09/17 05:09:08;;;;;;;5.45;4.57;;;15.00;99.90;;;;;;4953855;28;20396;-80
2023/09/17 05:11:34;;;;;;;4.75;4.22;;;15.00;99.90;;;;;;4959423;28;20456;-80
2023/09/17 05:14:01;;;;;;;6.15;4.25;;;15.00;99.90;;;;;;4955960;28;20129;-82
2023/09/17 05:16:27;;;;;;;4.80;4.38;;;15.00;99.90;;;;;;4944067;28;20046;-82
2023/09/17 05:18:53;;;;;;;5.32;3.92;;;15.00;99.90;;;;;;4955483;28;20038;-80
2023/09/17 05:21:19;;;;;;;5.07;4.03;;;14.90;99.90;;;;;;4958237;28;20030;-80
2023/09/17 05:23:45;;;;;;;5.07;4.57;;;14.90;99.90;;;;;;4939651;28;20117;-82
2023/09/17 05:26:11;;;;;;;6.45;5.55;;;14.90;99.90;;;;;;4968978;28;20030;-80
2023/09/17 05:28:37;;;;;;;5.80;4.88;;;14.90;99.90;;;;;;4971907;28;20022;-80
2023/09/17 05:31:03;;;;;;;6.18;5.05;;;14.90;99.90;;;;;;4954939;28;20125;-79
2023/09/17 05:33:32;;;;;;;6.68;5.90;;;14.90;99.90;;;;;;4954086;28;20391;-80
2023/09/17 05:36:00;;;;;;;6.35;5.75;;;14.90;99.90;;;;;;4959688;28;20037;-80
2023/09/17 05:38:27;;;;;;;6.72;6.00;;;14.90;99.90;;;;;;4953452;28;20039;-79
2023/09/17 05:40:53;;;;;;;6.82;5.50;;;14.90;99.90;;;;;;4954993;28;20081;-81
2023/09/17 05:43:19;;;;;;;7.28;5.25;;;15.00;99.90;;;;;;4974903;28;20026;-80
2023/09/17 05:45:46;;;;;;;6.95;5.60;;;15.00;99.90;;;;;;4938309;28;20053;-81
2023/09/17 05:48:13;;;;;;;6.05;5.45;;;15.00;99.90;;;;;;4958293;28;20564;-80
2023/09/17 05:50:39;;;;;;;5.55;5.05;;;15.10;99.90;;;;;;4943273;28;20041;-78
2023/09/17 05:53:05;;;;;;;6.22;4.07;;;15.10;99.90;;;;;;4938520;28;20039;-79
2023/09/17 05:55:31;;;;;;;4.15;3.70;;;15.10;99.90;;;;;;4940046;28;20031;-80
2023/09/17 05:57:57;;;;;;;8.48;3.95;;;15.10;99.90;;;;;;4956029;28;20046;-79
2023/09/17 06:00:24;;;;;;;4.90;4.15;;;15.20;99.90;;;;;;4955852;28;20035;-81
2023/09/17 06:02:50;;;;;;;7.20;4.65;;;15.20;99.90;;;;;;4937815;28;20058;-80
2023/09/17 06:05:16;;;;;;;5.00;4.50;;;15.20;99.90;;;;;;4961414;28;20139;-80
2023/09/17 06:07:42;;;;;;;5.20;4.63;;;15.20;99.90;;;;;;4961233;28;20118;-80
2023/09/17 06:10:08;;;;;;;5.57;4.78;;;15.30;99.90;;;;;;4971284;28;20049;-79
2023/09/17 06:12:34;;;;;;;8.43;5.50;;;15.30;99.90;;;;;;4947768;28;20057;-80
2023/09/17 06:15:02;;;;;;;7.25;5.85;;;15.30;99.90;;;;;;4946023;28;20406;-79
2023/09/17 06:17:28;;;;;;;5.72;5.20;;;15.40;99.90;;;;;;4954039;28;20475;-80
2023/09/17 06:19:54;;;;;;;6.20;5.50;;;15.40;99.90;;;;;;4954374;28;20038;-81
2023/09/17 06:22:19;;;;;;;5.95;5.30;;;15.40;99.90;;;;;;4959098;28;20027;-81
2023/09/17 06:24:46;;;;;;;7.85;5.25;;;15.50;99.90;;;;;;4958257;28;20448;-81
2023/09/17 06:27:11;;;;;;;5.43;4.90;;;15.60;99.90;;;;;;4963234;28;20061;-81
2023/09/17 06:29:37;;;;;;;8.05;5.55;;;15.80;99.90;;;;;;4961110;28;20035;-80
2023/09/17 06:32:04;;;;;;;5.70;5.20;;;15.90;99.90;;;;;;4959186;28;20035;-79
2023/09/17 06:34:30;;;;;;;8.77;6.20;;;16.00;99.90;;;;;;4938390;28;20038;-80
2023/09/17 06:36:55;;;;;;;6.90;5.82;;;16.10;99.90;;;;;;4953948;28;20132;-79
2023/09/17 06:39:21;;;;;;;6.95;6.25;;;16.30;99.90;;;;;;4972798;28;20068;-81
2023/09/17 06:41:47;;;;;;;8.27;6.85;;;16.70;99.90;;;;;;4953961;28;20046;-81
2023/09/17 06:44:18;;;;;;;6.45;5.75;;;17.10;99.90;;;;;;4960972;28;20026;-80
2023/09/17 06:46:44;;;;;;;7.47;5.57;;;17.50;99.90;;;;;;4940007;28;20472;-78
2023/09/17 06:49:10;;;;;;;6.50;5.60;;;17.60;99.90;;;;;;4971691;28;20058;-79
2023/09/17 06:51:37;;;;;;;6.32;5.70;;;17.70;99.90;;;;;;4957209;28;20038;-80
2023/09/17 06:54:03;;;;;;;7.57;5.82;;;17.70;99.90;;;;;;4973344;28;20027;-81
2023/09/17 06:56:29;;;;;;;7.45;5.70;;;17.70;99.90;;;;;;4971351;28;20038;-81
2023/09/17 06:58:55;;;;;;;5.90;5.40;;;17.80;99.90;;;;;;4970859;28;20035;-81
2023/09/17 07:01:21;;;;;;;7.00;6.15;;;18.10;99.90;;;;;;4975940;28;20031;-81
2023/09/17 07:03:47;;;;;;;6.03;5.43;;;18.40;99.90;;;;;;4954402;28;20038;-80
2023/09/17 07:06:13;;;;;;;6.68;5.18;;;18.50;99.90;;;;;;4956868;28;20082;-81
2023/09/17 07:08:39;;;;;;;6.63;5.68;;;18.60;99.90;;;;;;4972672;28;20525;-81
2023/09/17 07:11:05;;;;;;;6.82;4.97;;;18.70;99.90;;;;;;4977202;28;20035;-80
2023/09/17 07:13:31;;;;;;;5.28;4.78;;;18.90;99.90;;;;;;4955554;28;20038;-79
2023/09/17 07:15:57;;;;;;;6.60;5.45;;;19.00;99.90;;;;;;4972513;28;20125;-81
2023/09/17 07:18:25;;;;;;;6.07;5.47;;;19.00;99.90;;;;;;4974722;28;20334;-79
2023/09/17 07:20:51;;;;;;;5.93;5.07;;;18.90;99.90;;;;;;4971748;28;20531;-78
2023/09/17 07:23:17;;;;;;;5.93;5.32;;;18.90;99.90;;;;;;4970384;28;20122;-79
2023/09/17 07:25:45;;;;;;;8.75;5.82;;;18.90;99.90;;;;;;4970253;28;20022;-79
2023/09/17 07:28:11;;;;;;;6.57;5.90;;;18.90;99.90;;;;;;4972397;28;20031;-80
2023/09/17 07:30:37;;;;;;;6.32;5.35;;;19.10;99.90;;;;;;4971898;28;20038;-79
2023/09/17 07:33:04;;;;;;;6.05;5.45;;;19.20;99.90;;;;;;4970799;28;20082;-79
2023/09/17 07:35:31;;;;;;;5.72;5.13;;;19.20;99.90;;;;;;4967961;28;20061;-79
2023/09/17 07:37:57;;;;;;;6.13;4.80;;;19.40;99.90;;;;;;4970070;28;20053;-79
2023/09/17 07:40:23;;;;;;;5.97;4.85;;;19.60;99.90;;;;;;4969725;28;20039;-80
2023/09/17 07:42:48;;;;;;;5.20;4.35;;;19.90;99.90;;;;;;4969617;28;20038;-79
2023/09/17 07:45:14;;;;;;;8.90;5.45;;;20.20;99.90;;;;;;4971146;28;20027;-79
2023/09/17 07:47:43;;;;;;;5.22;4.68;;;20.30;99.90;;;;;;4954073;28;20716;-79
2023/09/17 07:50:09;;;;;;;4.70;4.30;;;20.30;99.90;;;;;;4971066;28;20055;-79
2023/09/17 07:52:35;;;;;;;4.95;4.55;;;20.30;99.90;;;;;;4970175;28;20042;-80
2023/09/17 07:55:01;;;;;;;6.63;5.82;;;20.30;99.90;;;;;;4970684;28;20085;-82
2023/09/17 07:57:27;;;;;;;5.25;4.75;;;20.30;99.90;;;;;;4973797;28;20521;-80
2023/09/17 07:59:53;;;;;;;7.47;6.55;;;20.30;99.90;;;;;;4952637;28;20034;-82
2023/09/17 08:02:20;;;;;;;4.95;4.45;;;20.30;99.90;;;;;;4956654;28;20045;-80
2023/09/17 08:04:45;;;;;;;3.90;3.60;;;20.30;99.90;;;;;;4954611;28;20031;-81
2023/09/17 08:07:11;;;;;;;4.00;3.70;;;20.40;99.90;;;;;;4970683;28;20049;-78
2023/09/17 08:09:38;;;;;;;5.68;4.68;;;20.40;99.90;;;;;;4968947;28;20090;-79
2023/09/17 08:12:05;;;;;;;5.43;4.10;;;20.40;99.90;;;;;;4969551;28;20048;-79
2023/09/17 08:14:34;;;;;;;4.90;4.40;;;20.50;99.90;;;;;;4953857;28;20042;-80
2023/09/17 08:17:01;;;;;;;4.68;3.90;;;20.70;99.90;;;;;;4975474;28;20039;-78
2023/09/17 08:19:27;;;;;;;5.60;4.25;;;20.90;99.90;;;;;;4975034;28;20089;-79
2023/09/17 08:21:53;;;;;;;5.07;4.28;;;21.00;99.90;;;;;;4974157;28;20423;-79
2023/09/17 08:24:20;;;;;;;5.32;4.20;;;21.20;99.90;;;;;;4973182;28;20033;-79
2023/09/17 08:26:47;;;;;;;4.88;3.97;;;21.30;99.90;;;;;;4972795;28;20093;-79
2023/09/17 08:29:13;;;;;;;5.03;4.25;;;21.50;99.90;;;;;;4972373;28;20523;-80
2023/09/17 08:31:39;;;;;;;4.43;4.03;;;21.50;99.90;;;;;;4956720;28;20505;-79
2023/09/17 08:34:05;;;;;;;5.00;4.38;;;21.50;99.90;;;;;;4971670;28;20050;-80
2023/09/17 08:36:32;;;;;;;4.30;3.95;;;21.70;99.90;;;;;;4974181;28;20063;-79
2023/09/17 08:38:58;;;;;;;5.53;4.63;;;21.80;99.90;;;;;;4972431;28;20031;-79
2023/09/17 08:41:24;;;;;;;4.68;4.00;;;21.80;99.90;;;;;;4974567;28;20018;-79
2023/09/17 08:43:52;;;;;;;5.28;4.15;;;22.00;99.90;;;;;;4956605;28;20437;-78
2023/09/17 08:46:20;;;;;;;6.80;4.43;;;22.00;99.90;;;;;;4972182;28;20027;-78
2023/09/17 08:48:46;;;;;;;7.00;4.70;;;22.10;99.90;;;;;;4974308;28;20066;-80
2023/09/17 08:51:15;;;;;;;4.28;3.88;;;22.20;99.90;;;;;;4959934;28;20045;-80
2023/09/17 08:54:05;;;;;;;5.40;4.82;;;22.10;99.90;;;;;;4954527;28;20023;-80
2023/09/17 08:56:33;;;;;;;4.65;4.25;;;22.10;99.90;;;;;;4971869;28;20062;-79
2023/09/17 08:59:05;;;;;;;6.68;4.07;;;22.30;99.90;;;;;;4956941;28;20766;-80
2023/09/17 09:01:33;;;;;;;4.40;4.00;;;22.30;99.90;;;;;;4972850;28;20118;-80
2023/09/17 09:04:01;;;;;;;5.00;4.55;;;22.30;99.90;;;;;;4956504;28;20035;-79
2023/09/17 09:06:29;;;;;;;5.45;4.95;;;22.10;99.90;;;;;;4938710;28;20023;-81
2023/09/17 09:08:55;;;;;;;5.70;4.50;;;22.10;99.90;;;;;;4971038;28;20519;-79
2023/09/17 09:11:21;;;;;;;4.45;4.05;;;22.00;99.90;;;;;;4971056;28;20033;-78
2023/09/17 09:13:50;;;;;;;4.50;4.07;;;22.00;99.90;;;;;;4977081;28;20031;-78
2023/09/17 09:16:16;;;;;;;4.40;4.00;;;22.00;99.90;;;;;;4977062;28;20034;-79
2023/09/17 09:18:43;;;;;;;6.90;4.20;;;22.10;99.90;;;;;;4977361;28;20077;-78
2023/09/17 09:21:10;;;;;;;4.97;4.47;;;22.10;99.90;;;;;;4976865;28;20368;-78
2023/09/17 09:23:36;;;;;;;4.60;4.20;;;22.10;99.90;;;;;;4976335;28;20101;-79
2023/09/17 09:26:03;;;;;;;4.72;4.00;;;22.30;99.90;;;;;;4977788;28;20559;-79
2023/09/17 09:28:33;;;;;;;4.45;3.97;;;22.30;99.90;;;;;;4959920;28;20376;-79
2023/09/17 09:30:59;;;;;;;4.53;4.13;;;22.40;99.90;;;;;;4973979;28;20596;-81
2023/09/17 09:33:26;;;;;;;4.95;4.55;;;22.40;99.90;;;;;;4972205;28;20035;-79
2023/09/17 09:35:54;;;;;;;8.85;4.30;;;22.40;99.90;;;;;;4972457;28;20050;-80
2023/09/17 09:38:20;;;;;;;5.15;4.03;;;22.40;99.90;;;;;;4958431;28;20067;-79
2023/09/17 09:40:46;;;;;;;4.85;3.97;;;22.40;99.90;;;;;;4971398;28;20073;-79
2023/09/17 09:43:31;;;;;;;4.65;4.10;;;22.40;99.90;;;;;;4970581;28;20062;-79
2023/09/17 09:46:04;;;;;;;8.85;4.82;;;22.40;99.90;;;;;;4968534;28;20058;-80
2023/09/17 09:48:50;;;;;;;8.25;4.50;;;22.30;99.90;;;;;;4974054;28;20042;-78
2023/09/17 09:51:17;;;;;;;5.57;4.18;;;22.40;99.90;;;;;;4974084;28;20129;-80
2023/09/17 09:53:44;;;;;;;4.35;3.95;;;22.40;99.90;;;;;;4974589;28;20109;-80
2023/09/17 09:56:11;;;;;;;4.28;3.88;;;22.40;99.90;;;;;;4975038;28;20043;-79
2023/09/17 09:58:39;;;;;;;5.57;4.32;;;22.40;99.90;;;;;;4979197;28;20035;-80
2023/09/17 10:01:05;;;;;;;5.18;3.95;;;22.60;99.90;;;;;;4978354;28;20105;-80
2023/09/17 10:03:31;;;;;;;4.50;4.10;;;22.70;99.90;;;;;;4973844;28;20038;-79
2023/09/17 10:06:06;;;;;;;4.85;3.80;;;22.90;99.90;;;;;;4973543;28;20023;-79
2023/09/17 10:08:38;;;;;;;3.90;3.55;;;23.00;99.90;;;;;;4975664;28;20042;-80
2023/09/17 10:11:07;;;;;;;3.50;3.20;;;23.20;99.90;;;;;;4974190;28;20455;-79
2023/09/17 10:13:34;;;;;;;3.92;3.50;;;23.50;99.90;;;;;;4974415;28;20031;-79
2023/09/17 10:16:02;;;;;;;3.85;3.55;;;23.70;99.90;;;;;;4971449;28;20039;-80
2023/09/17 10:18:30;;;;;;;5.05;3.30;;;23.80;99.90;;;;;;4971069;28;20031;-80
2023/09/17 10:20:57;;;;;;;4.07;3.75;;;23.90;99.90;;;;;;4972622;28;20285;-80
2023/09/17 10:23:24;;;;;;;3.75;3.45;;;24.00;99.90;;;;;;4973304;28;20085;-79
2023/09/17 10:25:51;;;;;;;5.72;3.42;;;24.10;99.90;;;;;;4967240;28;20027;-79
2023/09/17 10:28:18;;;;;;;3.60;3.13;;;24.20;99.90;;;;;;4972518;28;20045;-80
2023/09/17 10:30:45;;;;;;;6.53;3.30;;;24.20;99.90;;;;;;4976993;28;20023;-79
2023/09/17 10:33:14;;;;;;;3.40;3.10;;;24.20;99.90;;;;;;4972635;28;20110;-80
2023/09/17 10:35:42;;;;;;;3.10;2.80;;;24.20;99.90;;;;;;4969678;28;20554;-80
2023/09/17 10:38:09;;;;;;;3.00;2.80;;;24.40;99.00;;;;;;4963587;28;20037;-79
2023/09/17 10:40:36;;;;;;;3.50;3.20;;;24.50;98.90;;;;;;4956678;28;20085;-80
2023/09/17 10:43:04;;;;;;;6.25;3.08;;;24.60;98.50;;;;;;4972826;28;20061;-79
2023/09/17 10:45:34;;;;;;;3.50;3.20;;;24.60;98.50;;;;;;4973280;28;20554;-79
2023/09/17 10:48:02;;;;;;;3.75;3.15;;;24.50;97.80;;;;;;4973097;28;20046;-81
2023/09/17 10:50:29;;;;;;;3.42;3.10;;;24.60;97.90;;;;;;4949002;28;20038;-80
2023/09/17 10:52:54;;;;;;;3.53;3.20;;;24.60;97.50;;;;;;4952079;28;20077;-82
2023/09/17 10:55:22;;;;;;;3.75;2.92;;;24.50;97.00;;;;;;4954116;28;20917;-80
2023/09/17 10:58:00;;;;;;;2.60;2.40;;;24.60;98.30;;;;;;4968140;28;20027;-79
2023/09/17 11:00:31;;;;;;;3.35;3.05;;;24.60;94.90;;;;;;4971923;28;20124;-79
2023/09/17 11:02:59;;;;;;;2.63;2.42;;;24.70;95.70;;;;;;4976599;28;20035;-81
2023/09/17 11:05:28;;;;;;;4.00;2.65;;;24.60;94.00;;;;;;4953213;28;20026;-80
2023/09/17 11:08:02;;;;;;;2.83;2.63;;;24.70;96.70;;;;;;4957701;28;20451;-79
2023/09/17 11:10:29;;;;;;;2.80;2.47;;;24.70;94.60;;;;;;4953147;28;20038;-80
2023/09/17 11:12:55;;;;;;;3.17;2.88;;;24.70;94.00;;;;;;4969089;28;20027;-79
2023/09/17 11:15:20;;;;;;;3.35;2.80;;;24.70;93.20;;;;;;4965253;28;20114;-78
2023/09/17 11:17:49;;;;;;;3.28;2.60;;;24.70;93.50;;;;;;4968434;28;20066;-80
2023/09/17 11:20:17;;;;;;;3.15;2.95;;;24.70;92.60;;;;;;4970873;28;20027;-80
2023/09/17 11:22:49;;;;;;;3.15;2.90;;;24.70;94.20;;;;;;4962858;28;20102;-80
2023/09/17 11:25:35;;;;;;;3.15;2.88;;;24.90;94.40;;;;;;4970958;28;20034;-79
2023/09/17 11:28:09;;;;;;;3.08;2.88;;;25.00;94.10;;;;;;4976750;28;20031;-78
2023/09/17 11:30:59;;;;;;;3.07;2.63;;;25.00;95.50;;;;;;4958867;28;20031;-78
2023/09/17 11:33:26;;;;;;;5.65;2.70;;;25.00;94.50;;;;;;4965713;28;20177;-78
2023/09/17 11:35:58;;;;;;;4.80;2.50;;;25.10;93.80;;;;;;4971440;28;20035;-78
2023/09/17 11:38:25;;;;;;;2.78;2.58;;;25.10;92.10;;;;;;4957606;28;20447;-77
2023/09/17 11:41:06;;;;;;;2.80;2.60;;;25.30;94.40;;;;;;4964541;28;20040;-78
2023/09/17 11:43:37;;;;;;;2.67;2.47;;;25.30;95.20;;;;;;4961595;28;20085;-79
2023/09/17 11:46:05;;;;;;;2.92;2.40;;;25.40;93.50;;;;;;4958226;28;20543;-78
2023/09/17 11:48:33;;;;;;;2.38;2.10;;;25.50;95.20;;;;;;4933495;28;20023;-78
2023/09/17 11:51:25;;;;;;;2.42;2.22;;;25.60;95.40;;;;;;4972328;28;20403;-78
2023/09/17 11:53:59;;;;;;;2.50;2.30;;;25.70;93.60;;;;;;4960067;28;20031;-79
2023/09/17 11:56:33;;;;;;;3.10;2.67;;;25.80;92.00;;;;;;4966948;28;20035;-78
2023/09/17 11:59:00;;;;;;;3.05;2.63;;;25.70;90.40;;;;;;4966301;28;20592;-79
2023/09/17 12:01:28;;;;;;;3.75;3.05;;;25.80;92.40;;;;;;4967623;28;20668;-79
2023/09/17 12:03:54;;;;;;;2.63;2.42;;;25.80;91.30;;;;;;4958693;28;20035;-80
2023/09/17 12:06:20;;;;;;;3.45;2.50;;;26.00;90.40;;;;;;4968261;28;20059;-80
2023/09/17 12:08:47;;;;;;;2.72;2.45;;;26.00;90.80;;;;;;4968484;28;20095;-78
2023/09/17 12:11:21;;;;;;;3.40;2.63;;;26.00;89.00;;;;;;4969801;28;20041;-81
2023/09/17 12:13:56;;;;;;;2.83;2.63;;;26.00;90.60;;;;;;4965983;28;20121;-80
2023/09/17 12:16:27;;;;;;;2.60;2.40;;;26.00;89.20;;;;;;4969938;28;20061;-78
2023/09/17 12:18:54;;;;;;;2.80;2.60;;;26.00;89.50;;;;;;4965398;28;20266;-78
2023/09/17 12:21:22;;;;;;;3.03;2.83;;;26.10;87.90;;;;;;4954242;28;20035;-79
2023/09/17 12:23:54;;;;;;;2.80;2.50;;;26.00;87.80;;;;;;4969825;28;20616;-80
2023/09/17 12:26:34;;;;;;;3.58;2.83;;;25.90;86.90;;;;;;4966864;28;20022;-79
2023/09/17 12:29:00;;;;;;;4.65;2.92;;;25.90;85.90;;;;;;4971583;28;20083;-79
2023/09/17 12:31:26;;;;;;;3.47;3.08;;;25.90;86.80;;;;;;4974557;28;20138;-79
2023/09/17 12:33:52;;;;;;;2.88;2.60;;;25.80;87.70;;;;;;4965888;28;20713;-77
2023/09/17 12:36:19;;;;;;;2.80;2.60;;;26.00;89.70;;;;;;4967157;28;20019;-78
2023/09/17 12:38:45;;;;;;;2.85;2.25;;;25.90;89.30;;;;;;4948994;28;20066;-79
2023/09/17 12:41:12;;;;;;;2.15;2.05;;;26.00;85.90;;;;;;4952804;28;20512;-81
2023/09/17 12:43:39;;;;;;;3.45;2.15;;;26.00;87.50;;;;;;4951933;28;20027;-79
2023/09/17 12:46:06;;;;;;;2.30;2.20;;;26.10;83.60;;;;;;4954893;28;20034;-79
2023/09/17 12:48:33;;;;;;;2.63;2.42;;;26.10;84.60;;;;;;4970149;28;20415;-78
2023/09/17 12:50:59;;;;;;;3.38;2.33;;;26.10;86.00;;;;;;4972141;28;20562;-79